Aviation Digital Data Service (ADDS)

Output produced by METARs form (0734 UTC 16 January 2018)
found at http://www.aviationweather.gov/adds/metars/
 
GCLP 160700Z 02030G40KT 9999 FEW040 BKN065 17/09 Q1023 NOSIG
TAF GCLP 160200Z 1603/1703 02025KT 9999 BKN030 TX20/1614Z TN16/1606Z 
     TEMPO 1603/1621 02025G35KT 
     PROB30 
     TEMPO 1603/1613 4500 RA
       
EGTE 160720Z 28013G23KT 9999 FEW025 06/03 Q0998
TAF EGTE 160658Z 1606/1615 28012KT 9999 FEW012 SCT030 
     TEMPO 1606/1615 6000 SHRA 
     PROB30 
     TEMPO 1611/1615 4000 +SHRA BKN012
       
EGGD 160720Z AUTO 26014KT 9999 FEW013 SCT031 BKN040 03/03 Q0996
TAF EGGD 160502Z 1606/1706 25016KT 9999 SCT020 
     TEMPO 1606/1618 27025G40KT 7000 SHRA BKN012CB 
     PROB30 
     TEMPO 1606/1618 3000 +SHGS BKN008 
     TEMPO 1618/1706 27025G40KT 1000 SHSN +SHGS BKN004 BKN010CB